createdAt,value
2024-02-28T00:00:00.548Z,35.10
2024-02-28T00:02:32.810Z,34.30
2024-02-28T00:05:04.870Z,36.80
2024-02-28T00:07:37.174Z,35.60
2024-02-28T00:10:10.754Z,35.20
2024-02-28T00:12:43.748Z,36.40
2024-02-28T00:15:15.871Z,35.00
2024-02-28T00:17:48.024Z,34.40
2024-02-28T00:20:20.077Z,34.90
2024-02-28T00:22:51.979Z,33.30
2024-02-28T00:25:23.964Z,35.40
2024-02-28T00:27:55.919Z,34.10
2024-02-28T00:30:29.960Z,35.00
2024-02-28T00:33:02.578Z,33.60
2024-02-28T00:35:36.788Z,36.00
2024-02-28T00:38:09.669Z,34.20
2024-02-28T00:40:41.577Z,37.30
2024-02-28T00:43:13.861Z,33.90
2024-02-28T00:45:45.874Z,34.10
2024-02-28T00:48:17.919Z,33.10
2024-02-28T00:50:49.879Z,33.00
2024-02-28T00:53:22.537Z,33.00
2024-02-28T00:55:54.468Z,33.10
2024-02-28T00:58:27.772Z,34.40
2024-02-28T01:01:00.865Z,32.10
2024-02-28T01:03:33.542Z,31.20
2024-02-28T01:06:06.204Z,31.90
2024-02-28T01:08:38.097Z,32.10
2024-02-28T01:11:09.996Z,33.40
2024-02-28T01:13:41.888Z,30.60
2024-02-28T01:16:14.108Z,31.50
2024-02-28T01:18:45.997Z,32.50
2024-02-28T01:21:17.991Z,32.20
2024-02-28T01:23:49.905Z,32.90
2024-02-28T01:26:23.359Z,34.40
2024-02-28T01:28:55.239Z,35.20
2024-02-28T01:31:27.196Z,34.70
2024-02-28T01:33:59.173Z,34.80
2024-02-28T01:36:31.224Z,37.10
2024-02-28T01:39:04.484Z,37.60
2024-02-28T01:41:36.404Z,37.40
2024-02-28T01:44:08.672Z,35.80
2024-02-28T01:46:40.654Z,40.50
2024-02-28T01:49:12.918Z,37.40
2024-02-28T01:51:46.750Z,37.50
2024-02-28T01:54:20.608Z,37.50
2024-02-28T01:56:53.019Z,35.40
2024-02-28T01:59:28.676Z,37.50
2024-02-28T02:02:01.062Z,36.10
2024-02-28T02:04:32.965Z,36.70
2024-02-28T02:07:06.178Z,37.70
2024-02-28T02:09:38.385Z,37.70
2024-02-28T02:12:11.376Z,37.20
2024-02-28T02:14:43.829Z,38.90
2024-02-28T02:17:16.046Z,37.20
2024-02-28T02:19:48.048Z,36.90
2024-02-28T02:22:21.334Z,37.50
2024-02-28T02:24:53.253Z,38.40
2024-02-28T02:27:28.572Z,36.70
2024-02-28T02:30:00.848Z,35.80
2024-02-28T02:32:33.142Z,38.60
2024-02-28T02:35:05.570Z,37.60
2024-02-28T02:37:37.598Z,35.40
2024-02-28T02:40:11.599Z,37.80
2024-02-28T02:42:43.499Z,35.20
2024-02-28T02:45:16.162Z,37.10
2024-02-28T02:47:48.241Z,33.20
2024-02-28T02:50:20.829Z,34.80
2024-02-28T02:52:52.837Z,34.00
2024-02-28T02:55:24.684Z,33.70
2024-02-28T02:57:57.065Z,37.10
2024-02-28T03:00:29.200Z,36.00
2024-02-28T03:03:01.191Z,36.20
2024-02-28T03:05:33.090Z,35.60
2024-02-28T03:08:05.956Z,34.20
2024-02-28T03:10:37.767Z,36.30
2024-02-28T03:13:09.729Z,33.70
2024-02-28T03:15:41.657Z,37.00
2024-02-28T03:18:13.893Z,38.70
2024-02-28T03:20:46.139Z,39.70
2024-02-28T03:23:18.275Z,40.90
2024-02-28T03:25:50.269Z,42.60
2024-02-28T03:28:22.158Z,38.90
2024-02-28T03:30:54.212Z,39.90
2024-02-28T03:33:26.622Z,40.40
2024-02-28T03:35:58.518Z,40.60
2024-02-28T03:38:30.398Z,41.00
2024-02-28T03:41:04.308Z,40.70
2024-02-28T03:43:36.192Z,40.40
2024-02-28T03:46:08.203Z,41.50
2024-02-28T03:48:40.107Z,41.40
2024-02-28T03:51:11.983Z,39.60
2024-02-28T03:53:44.380Z,41.20
2024-02-28T03:56:25.925Z,39.90
2024-02-28T03:58:58.178Z,43.70
2024-02-28T04:01:30.093Z,38.30
2024-02-28T04:04:02.248Z,37.80
2024-02-28T04:06:34.112Z,40.40
2024-02-28T04:09:06.056Z,37.30
2024-02-28T04:11:39.191Z,36.20
2024-02-28T04:14:11.237Z,36.20
2024-02-28T04:16:46.924Z,31.70
2024-02-28T04:19:19.093Z,31.40
2024-02-28T04:21:51.025Z,31.50
2024-02-28T04:24:23.046Z,30.80
2024-02-28T04:26:55.505Z,33.50
2024-02-28T04:29:27.460Z,33.90
2024-02-28T04:31:59.348Z,32.00
2024-02-28T04:34:31.331Z,34.10
2024-02-28T04:37:03.201Z,34.30
2024-02-28T04:39:35.108Z,34.90
2024-02-28T04:42:07.760Z,34.70
2024-02-28T04:44:39.770Z,33.90
2024-02-28T04:47:11.672Z,34.40
2024-02-28T04:49:43.585Z,35.70
2024-02-28T04:52:15.493Z,38.90
2024-02-28T04:54:47.481Z,38.50
2024-02-28T04:57:19.460Z,36.70
2024-02-28T04:59:51.434Z,36.60
2024-02-28T05:02:23.836Z,37.50
2024-02-28T05:04:56.253Z,34.90
2024-02-28T05:07:28.120Z,35.70
2024-02-28T05:10:00.058Z,36.70
2024-02-28T05:12:32.007Z,37.50
2024-02-28T05:15:04.067Z,39.10
2024-02-28T05:17:36.074Z,36.30
2024-02-28T05:20:10.541Z,39.50
2024-02-28T05:22:44.916Z,37.70
2024-02-28T05:25:16.886Z,37.30
2024-02-28T05:27:48.804Z,37.80
2024-02-28T05:30:20.941Z,39.60
2024-02-28T05:32:52.901Z,38.20
2024-02-28T05:35:24.845Z,36.90
2024-02-28T05:37:58.584Z,36.20
2024-02-28T05:40:30.485Z,38.70
2024-02-28T05:43:03.357Z,39.30
2024-02-28T05:45:36.037Z,37.90
2024-02-28T05:48:09.057Z,38.60
2024-02-28T05:50:41.480Z,39.30
2024-02-28T05:53:13.408Z,40.60
2024-02-28T05:55:46.972Z,40.90
2024-02-28T05:58:18.876Z,38.00
2024-02-28T06:00:51.054Z,38.00
2024-02-28T06:03:23.199Z,38.40
2024-02-28T06:05:56.710Z,39.00
2024-02-28T06:08:28.598Z,37.90
2024-02-28T06:11:00.546Z,40.10
2024-02-28T06:13:32.476Z,39.90
2024-02-28T06:16:04.872Z,38.80
2024-02-28T06:18:36.932Z,39.80
2024-02-28T06:21:09.094Z,36.90
2024-02-28T06:23:40.959Z,37.40
2024-02-28T06:26:18.269Z,39.00
2024-02-28T06:31:22.152Z,34.40
2024-02-28T06:33:54.002Z,34.70
2024-02-28T06:36:26.014Z,35.80
2024-02-28T06:38:57.923Z,33.90
2024-02-28T06:41:29.837Z,32.50
2024-02-28T06:44:01.751Z,30.50
2024-02-28T06:46:33.768Z,30.70
2024-02-28T06:49:06.123Z,32.60
2024-02-28T06:51:38.889Z,31.70
2024-02-28T06:54:11.636Z,32.80
2024-02-28T06:56:43.548Z,33.00
2024-02-28T06:59:15.454Z,33.30
2024-02-28T07:01:47.481Z,30.90
2024-02-28T07:04:19.425Z,33.00
2024-02-28T07:06:51.991Z,32.20
2024-02-28T07:09:26.884Z,30.40
2024-02-28T07:11:58.887Z,30.70
2024-02-28T07:14:30.909Z,34.20
2024-02-28T07:17:02.806Z,31.50
2024-02-28T07:19:34.669Z,33.40
2024-02-28T07:22:08.402Z,32.10
2024-02-28T07:24:40.303Z,30.80
2024-02-28T07:27:12.294Z,31.40
2024-02-28T07:29:44.171Z,31.20
2024-02-28T07:32:16.098Z,31.60
2024-02-28T07:34:47.987Z,30.10
2024-02-28T07:37:19.955Z,29.00
2024-02-28T07:39:51.861Z,31.20
2024-02-28T07:42:23.837Z,31.80
2024-02-28T07:44:58.258Z,31.30
2024-02-28T07:47:30.399Z,31.00
2024-02-28T07:50:02.328Z,31.60
2024-02-28T07:52:36.758Z,29.70
2024-02-28T07:55:09.962Z,29.80
2024-02-28T07:57:41.927Z,30.20
2024-02-28T08:00:21.676Z,30.20
2024-02-28T08:02:53.660Z,31.30
2024-02-28T08:05:25.609Z,32.40
2024-02-28T08:07:57.517Z,29.60
2024-02-28T08:10:29.678Z,31.20
2024-02-28T08:13:01.677Z,31.40
2024-02-28T08:15:33.597Z,32.60
2024-02-28T08:18:05.906Z,31.70
2024-02-28T08:20:38.359Z,31.00
2024-02-28T08:23:10.867Z,31.40
2024-02-28T08:25:42.745Z,33.40
2024-02-28T08:28:15.064Z,31.90
2024-02-28T08:30:47.188Z,31.90
2024-02-28T08:33:20.907Z,29.80
2024-02-28T08:35:55.141Z,30.90
2024-02-28T08:38:27.182Z,32.30
2024-02-28T08:40:59.156Z,31.70
2024-02-28T08:43:31.095Z,30.50
2024-02-28T08:46:03.053Z,30.60
2024-02-28T08:48:35.416Z,29.30
2024-02-28T08:51:07.894Z,29.60
2024-02-28T08:53:39.806Z,29.50
2024-02-28T08:56:11.681Z,28.00
2024-02-28T08:58:45.648Z,27.60
2024-02-28T09:01:19.203Z,28.00
2024-02-28T09:03:51.712Z,27.10
2024-02-28T09:06:23.758Z,26.80
2024-02-28T09:08:55.654Z,29.50
2024-02-28T09:11:27.561Z,26.90
2024-02-28T09:13:59.502Z,36.00
2024-02-28T09:16:31.443Z,33.30
2024-02-28T09:19:03.449Z,35.90
2024-02-28T09:21:35.505Z,35.30
2024-02-28T09:24:08.698Z,31.00
2024-02-28T09:26:44.647Z,28.60
2024-02-28T09:29:16.628Z,31.60
2024-02-28T09:31:48.493Z,37.20
2024-02-28T09:34:20.712Z,24.80
2024-02-28T09:36:52.676Z,23.50
2024-02-28T09:39:24.844Z,24.80
2024-02-28T09:41:56.800Z,26.20
2024-02-28T09:44:31.126Z,24.10
2024-02-28T09:47:02.982Z,23.30
2024-02-28T09:49:38.392Z,22.40
2024-02-28T09:52:10.483Z,23.10
2024-02-28T09:54:45.109Z,24.30
2024-02-28T09:57:17.461Z,23.40
2024-02-28T09:59:54.653Z,23.70
2024-02-28T10:02:30.406Z,23.00
2024-02-28T10:05:05.373Z,24.50
2024-02-28T10:07:37.582Z,23.40
2024-02-28T10:10:11.704Z,23.80
2024-02-28T10:12:46.698Z,25.40
2024-02-28T10:15:18.691Z,21.90
2024-02-28T10:17:51.264Z,20.80
2024-02-28T10:20:23.184Z,21.50
2024-02-28T10:22:56.293Z,20.40
2024-02-28T10:25:32.191Z,19.60
2024-02-28T10:28:06.838Z,20.80
2024-02-28T10:30:44.479Z,19.30
2024-02-28T10:33:17.361Z,18.80
2024-02-28T10:35:53.241Z,18.70
2024-02-28T10:38:25.459Z,20.10
2024-02-28T10:40:58.000Z,18.30
2024-02-28T10:43:32.035Z,18.20
2024-02-28T10:46:25.462Z,18.10
2024-02-28T10:48:58.683Z,17.20
2024-02-28T10:51:32.958Z,18.80
2024-02-28T10:54:12.997Z,19.10
2024-02-28T10:56:46.228Z,17.30
2024-02-28T10:59:18.171Z,25.00
2024-02-28T11:01:50.313Z,20.60
2024-02-28T11:04:22.700Z,19.50
2024-02-28T11:06:57.448Z,26.00
2024-02-28T11:09:33.577Z,23.40
2024-02-28T11:12:08.675Z,20.60
2024-02-28T11:14:40.612Z,21.10
2024-02-28T11:17:12.680Z,17.50
2024-02-28T11:19:44.595Z,17.70
2024-02-28T11:22:22.481Z,18.60
2024-02-28T11:24:58.335Z,15.80
2024-02-28T11:27:30.819Z,19.40
2024-02-28T11:30:02.973Z,19.80
2024-02-28T11:32:35.145Z,17.40
2024-02-28T11:35:08.114Z,17.00
2024-02-28T11:37:43.412Z,17.10
2024-02-28T11:40:15.826Z,19.80
2024-02-28T11:42:47.767Z,16.90
2024-02-28T11:45:19.930Z,16.30
2024-02-28T11:47:52.177Z,20.00
2024-02-28T11:50:25.508Z,17.00
2024-02-28T11:52:57.639Z,16.80
2024-02-28T11:55:30.218Z,16.70
2024-02-28T11:58:02.314Z,21.60
2024-02-28T12:00:34.478Z,15.60
2024-02-28T12:03:10.348Z,16.70
2024-02-28T12:05:45.441Z,16.90
2024-02-28T12:08:17.702Z,14.60
2024-02-28T12:10:50.011Z,15.10
2024-02-28T12:13:22.436Z,14.30
2024-02-28T12:15:54.335Z,22.70
2024-02-28T12:18:29.588Z,13.40
2024-02-28T12:21:01.838Z,14.00
2024-02-28T12:23:33.796Z,13.30
2024-02-28T12:26:05.814Z,21.80
2024-02-28T12:28:38.022Z,14.40
2024-02-28T12:31:12.974Z,19.90
2024-02-28T12:33:45.011Z,14.30
2024-02-28T12:36:18.121Z,15.30
2024-02-28T12:38:50.044Z,15.80
2024-02-28T12:41:22.093Z,23.30
2024-02-28T12:43:54.110Z,17.70
2024-02-28T12:46:26.058Z,20.80
2024-02-28T12:48:58.037Z,18.20
2024-02-28T12:51:42.983Z,17.90
2024-02-28T12:54:16.475Z,17.40
2024-02-28T12:56:48.499Z,13.20
2024-02-28T12:59:20.755Z,15.70
2024-02-28T13:01:52.884Z,13.20
2024-02-28T13:04:26.934Z,13.90
2024-02-28T13:06:58.855Z,15.60
2024-02-28T13:09:30.854Z,12.50
2024-02-28T13:12:03.127Z,11.60
2024-02-28T13:14:35.387Z,16.20
2024-02-28T13:17:08.932Z,12.10
2024-02-28T13:19:40.998Z,11.50
2024-02-28T13:22:12.961Z,12.30
2024-02-28T13:24:45.269Z,12.00
2024-02-28T13:27:17.309Z,12.90
2024-02-28T13:29:49.790Z,13.50
2024-02-28T13:32:21.934Z,14.70
2024-02-28T13:34:53.991Z,18.60
2024-02-28T13:37:25.893Z,13.60
2024-02-28T13:39:58.432Z,14.30
2024-02-28T13:42:30.597Z,13.80
2024-02-28T13:45:02.531Z,14.10
2024-02-28T13:47:34.469Z,13.30
2024-02-28T13:50:07.952Z,13.20
2024-02-28T13:52:39.888Z,12.20
2024-02-28T13:55:12.556Z,12.90
2024-02-28T13:57:44.555Z,12.50
2024-02-28T14:00:18.869Z,13.60
2024-02-28T14:02:52.183Z,13.50
2024-02-28T14:05:24.091Z,13.70
2024-02-28T14:07:55.939Z,14.70
2024-02-28T14:10:28.000Z,11.40
2024-02-28T14:13:00.316Z,11.40
2024-02-28T14:15:32.329Z,12.00
2024-02-28T14:18:04.619Z,12.80
2024-02-28T14:20:36.789Z,12.70
2024-02-28T14:23:08.790Z,11.60
2024-02-28T14:25:42.859Z,12.20
2024-02-28T14:28:15.333Z,12.00
2024-02-28T14:30:50.621Z,14.40
2024-02-28T14:33:22.803Z,11.10
2024-02-28T14:35:55.199Z,14.50
2024-02-28T14:38:27.031Z,13.30
2024-02-28T14:40:58.963Z,11.60
2024-02-28T14:43:31.651Z,17.50
2024-02-28T14:46:03.629Z,12.70
2024-02-28T14:48:35.748Z,16.00
2024-02-28T14:51:08.725Z,18.80
2024-02-28T14:53:40.614Z,16.40
2024-02-28T14:56:12.501Z,16.50
2024-02-28T14:58:44.535Z,17.70
2024-02-28T15:01:16.789Z,23.20
2024-02-28T15:03:49.787Z,14.20
2024-02-28T15:06:22.233Z,12.70
2024-02-28T15:08:54.158Z,16.90
2024-02-28T15:11:26.460Z,12.20
2024-02-28T15:13:58.505Z,16.70
2024-02-28T15:16:30.391Z,13.00
2024-02-28T15:19:02.324Z,12.20
2024-02-28T15:21:34.679Z,13.80
2024-02-28T15:24:07.068Z,11.10
2024-02-28T15:26:45.944Z,12.50
2024-02-28T15:29:19.486Z,11.90
2024-02-28T15:31:51.699Z,12.90
2024-02-28T15:34:23.615Z,13.90
2024-02-28T15:36:55.801Z,13.30
2024-02-28T15:39:27.723Z,12.80
2024-02-28T15:42:01.748Z,13.40
2024-02-28T15:44:35.356Z,12.80
2024-02-28T15:47:08.103Z,13.60
2024-02-28T15:49:41.481Z,13.20
2024-02-28T15:52:13.953Z,13.90
2024-02-28T15:54:45.959Z,13.20
2024-02-28T15:57:17.999Z,14.20
2024-02-28T15:59:49.833Z,15.30
2024-02-28T16:02:21.750Z,14.80
2024-02-28T16:04:53.611Z,14.40
2024-02-28T16:07:25.626Z,13.50
2024-02-28T16:09:57.940Z,14.70
2024-02-28T16:12:29.956Z,14.60
2024-02-28T16:15:01.795Z,14.70
2024-02-28T16:17:33.797Z,14.30
2024-02-28T16:20:06.587Z,12.80
2024-02-28T16:22:38.524Z,13.80
2024-02-28T16:25:11.705Z,13.20
2024-02-28T16:27:44.746Z,16.20
2024-02-28T16:30:17.232Z,15.10
2024-02-28T16:32:49.516Z,14.80
2024-02-28T16:35:21.719Z,14.60
2024-02-28T16:37:53.652Z,14.70
2024-02-28T16:40:25.845Z,17.10
2024-02-28T16:42:57.974Z,15.40
2024-02-28T16:45:29.866Z,14.90
2024-02-28T16:48:03.402Z,15.80
2024-02-28T16:50:35.273Z,16.80
2024-02-28T16:53:07.614Z,14.50
2024-02-28T16:55:39.470Z,15.90
2024-02-28T16:58:11.453Z,16.40
2024-02-28T17:00:43.391Z,17.70
2024-02-28T17:03:15.373Z,17.60
2024-02-28T17:05:48.888Z,15.80
2024-02-28T17:08:20.765Z,16.80
2024-02-28T17:10:52.632Z,15.90
2024-02-28T17:13:24.537Z,17.10
2024-02-28T17:16:03.692Z,18.40
2024-02-28T17:18:36.633Z,16.00
2024-02-28T17:21:08.803Z,21.50
2024-02-28T17:23:41.848Z,18.10
2024-02-28T17:26:13.909Z,14.80
2024-02-28T17:28:46.313Z,16.50
2024-02-28T17:31:18.323Z,17.90
2024-02-28T17:33:50.560Z,16.80
2024-02-28T17:36:22.490Z,22.90
2024-02-28T17:38:54.472Z,25.20
2024-02-28T17:41:26.355Z,19.80
2024-02-28T17:43:58.499Z,15.40
2024-02-28T17:46:31.072Z,15.50
2024-02-28T17:49:03.045Z,16.10
2024-02-28T17:51:37.444Z,15.20
2024-02-28T17:54:10.148Z,17.20
2024-02-28T17:56:42.687Z,14.50
2024-02-28T17:59:14.561Z,14.20
2024-02-28T18:01:46.560Z,15.70
2024-02-28T18:04:18.834Z,18.00
2024-02-28T18:06:50.784Z,17.40
2024-02-28T18:09:25.637Z,16.80
2024-02-28T18:12:00.046Z,21.70
2024-02-28T18:14:35.270Z,19.00
2024-02-28T18:17:07.743Z,16.70
2024-02-28T18:19:41.930Z,17.40
2024-02-28T18:22:13.843Z,18.20
2024-02-28T18:24:45.822Z,18.70
2024-02-28T18:27:17.936Z,22.40
2024-02-28T18:29:49.929Z,17.10
2024-02-28T18:32:21.794Z,17.20
2024-02-28T18:34:54.102Z,17.40
2024-02-28T18:37:25.969Z,17.40
2024-02-28T18:39:58.344Z,18.50
2024-02-28T18:42:30.276Z,17.30
2024-02-28T18:45:05.699Z,17.70
2024-02-28T18:47:37.603Z,16.90
2024-02-28T18:50:10.800Z,20.80
2024-02-28T18:52:42.642Z,18.70
2024-02-28T18:55:15.184Z,19.00
2024-02-28T18:57:47.085Z,18.70
2024-02-28T19:00:21.045Z,20.40
2024-02-28T19:02:54.921Z,19.10
2024-02-28T19:05:27.003Z,16.80
2024-02-28T19:07:58.886Z,18.40
2024-02-28T19:10:30.795Z,19.60
2024-02-28T19:13:02.823Z,19.70
2024-02-28T19:15:34.909Z,19.20
2024-02-28T19:18:07.547Z,19.40
2024-02-28T19:20:39.492Z,19.40
2024-02-28T19:23:11.879Z,19.20
2024-02-28T19:25:46.922Z,20.40
2024-02-28T19:28:19.445Z,19.30
2024-02-28T19:30:51.372Z,21.30
2024-02-28T19:33:23.225Z,21.30
2024-02-28T19:35:56.078Z,22.00
2024-02-28T19:38:27.905Z,20.20
2024-02-28T19:40:59.793Z,22.10
2024-02-28T19:43:32.339Z,21.40
2024-02-28T19:46:05.608Z,23.70
2024-02-28T19:48:44.523Z,25.50
2024-02-28T19:51:18.052Z,21.50
2024-02-28T19:53:49.998Z,24.00
2024-02-28T19:56:23.547Z,24.20
2024-02-28T19:58:55.504Z,22.90
2024-02-28T20:01:27.557Z,24.40
2024-02-28T20:03:59.818Z,23.70
2024-02-28T20:06:31.863Z,23.40
2024-02-28T20:09:03.810Z,24.40
2024-02-28T20:11:35.796Z,25.70
2024-02-28T20:14:08.830Z,23.00
2024-02-28T20:16:41.372Z,24.30
2024-02-28T20:19:13.420Z,22.90
2024-02-28T20:21:45.532Z,23.60
2024-02-28T20:24:17.425Z,23.70
2024-02-28T20:26:49.428Z,23.30
2024-02-28T20:29:21.291Z,24.10
2024-02-28T20:31:53.244Z,22.40
2024-02-28T20:34:25.177Z,22.00
2024-02-28T20:36:57.584Z,22.20
2024-02-28T20:39:29.481Z,25.30
2024-02-28T20:42:01.422Z,24.70
2024-02-28T20:44:33.309Z,25.70
2024-02-28T20:47:05.556Z,23.80
2024-02-28T20:49:37.830Z,25.40
2024-02-28T20:52:10.012Z,25.70
2024-02-28T20:54:41.945Z,24.40
2024-02-28T20:57:17.080Z,23.80
2024-02-28T20:59:50.753Z,24.30
2024-02-28T21:02:23.230Z,24.00
2024-02-28T21:04:57.000Z,23.40
2024-02-28T21:07:41.107Z,22.10
2024-02-28T21:10:20.288Z,23.00
2024-02-28T21:12:54.146Z,22.80
2024-02-28T21:15:26.366Z,22.00
2024-02-28T21:17:58.433Z,24.00
2024-02-28T21:20:30.967Z,22.40
2024-02-28T21:23:02.846Z,21.90
2024-02-28T21:25:34.730Z,23.70
2024-02-28T21:28:07.067Z,20.40
2024-02-28T21:30:39.515Z,16.80
2024-02-28T21:33:13.425Z,16.50
2024-02-28T21:35:46.557Z,15.20
2024-02-28T21:38:19.164Z,16.50
2024-02-28T21:40:51.058Z,17.50
2024-02-28T21:43:22.924Z,16.40
2024-02-28T21:45:54.830Z,11.70
2024-02-28T21:48:26.987Z,12.20
2024-02-28T21:50:58.944Z,13.10
2024-02-28T21:53:30.817Z,12.40
2024-02-28T21:56:02.848Z,14.00
2024-02-28T21:58:34.727Z,13.10
2024-02-28T22:01:07.147Z,11.20
2024-02-28T22:03:39.121Z,10.30
2024-02-28T22:06:11.702Z,9.50
2024-02-28T22:08:44.802Z,8.60
2024-02-28T22:11:16.814Z,9.30
2024-02-28T22:13:48.733Z,10.50
2024-02-28T22:16:20.620Z,10.30
2024-02-28T22:18:53.055Z,9.30
2024-02-28T22:21:24.957Z,8.80
2024-02-28T22:23:56.926Z,8.20
2024-02-28T22:26:28.895Z,8.60
2024-02-28T22:29:00.817Z,9.30
2024-02-28T22:31:32.767Z,9.50
2024-02-28T22:34:04.877Z,8.40
2024-02-28T22:36:36.767Z,8.40
2024-02-28T22:39:10.871Z,7.90
2024-02-28T22:41:42.814Z,8.80
2024-02-28T22:44:14.766Z,9.40
2024-02-28T22:46:46.762Z,9.60
2024-02-28T22:49:18.833Z,7.70
2024-02-28T22:51:51.245Z,10.20
2024-02-28T22:54:24.921Z,9.20
2024-02-28T22:56:57.189Z,9.60
2024-02-28T22:59:29.263Z,10.30
2024-02-28T23:02:01.228Z,9.20
2024-02-28T23:04:33.306Z,9.60
2024-02-28T23:07:05.666Z,9.10
2024-02-28T23:09:37.659Z,10.60
2024-02-28T23:12:10.591Z,9.10
2024-02-28T23:14:43.090Z,9.70
2024-02-28T23:17:16.236Z,8.90
2024-02-28T23:19:50.324Z,8.00
2024-02-28T23:22:22.294Z,9.10
2024-02-28T23:24:54.280Z,9.10
2024-02-28T23:27:27.572Z,8.70
2024-02-28T23:30:00.981Z,8.50
2024-02-28T23:32:33.270Z,8.90
2024-02-28T23:35:05.820Z,10.00
2024-02-28T23:37:37.979Z,8.90
2024-02-28T23:40:13.183Z,10.40
2024-02-28T23:42:45.116Z,10.00
2024-02-28T23:45:17.262Z,8.90
2024-02-28T23:47:50.014Z,8.70
2024-02-28T23:50:22.028Z,9.70
2024-02-28T23:52:53.905Z,10.10
2024-02-28T23:55:25.981Z,9.60
2024-02-28T23:57:57.915Z,9.40
